sensor_id;sensor_type;location;lat;lon;timestamp;P1;P2;P0
79537;PMS5003;68989;52.032;5.152;2024-01-30T00:01:54;45;39;
79537;PMS5003;68989;52.032;5.152;2024-01-30T00:04:21;41;35;
79537;PMS5003;68989;52.032;5.152;2024-01-30T00:06:47;37;35;
79537;PMS5003;68989;52.032;5.152;2024-01-30T00:09:14;44;38;
79537;PMS5003;68989;52.032;5.152;2024-01-30T00:11:41;44;41;
79537;PMS5003;68989;52.032;5.152;2024-01-30T00:14:08;41;39;
79537;PMS5003;68989;52.032;5.152;2024-01-30T00:16:35;38;37;
79537;PMS5003;68989;52.032;5.152;2024-01-30T00:19:02;36;34;
79537;PMS5003;68989;52.032;5.152;2024-01-30T00:21:29;49;42;
79537;PMS5003;68989;52.032;5.152;2024-01-30T00:23:56;39;37;
79537;PMS5003;68989;52.032;5.152;2024-01-30T00:26:24;34;32;
79537;PMS5003;68989;52.032;5.152;2024-01-30T00:28:51;44;38;
79537;PMS5003;68989;52.032;5.152;2024-01-30T00:31:18;42;38;
79537;PMS5003;68989;52.032;5.152;2024-01-30T00:33:45;44;41;
79537;PMS5003;68989;52.032;5.152;2024-01-30T00:36:13;40;37;
79537;PMS5003;68989;52.032;5.152;2024-01-30T00:38:40;39;37;
79537;PMS5003;68989;52.032;5.152;2024-01-30T00:41:07;37;33;
79537;PMS5003;68989;52.032;5.152;2024-01-30T00:43:34;33;29;
79537;PMS5003;68989;52.032;5.152;2024-01-30T00:46:02;40;39;
79537;PMS5003;68989;52.032;5.152;2024-01-30T00:48:29;40;38;
79537;PMS5003;68989;52.032;5.152;2024-01-30T00:50:56;39;37;
79537;PMS5003;68989;52.032;5.152;2024-01-30T00:53:23;48;37;
79537;PMS5003;68989;52.032;5.152;2024-01-30T00:55:50;36;34;
79537;PMS5003;68989;52.032;5.152;2024-01-30T00:58:16;36;31;
79537;PMS5003;68989;52.032;5.152;2024-01-30T01:00:43;33;32;
79537;PMS5003;68989;52.032;5.152;2024-01-30T01:03:10;39;38;
79537;PMS5003;68989;52.032;5.152;2024-01-30T01:05:37;34;32;
79537;PMS5003;68989;52.032;5.152;2024-01-30T01:08:04;36;31;
79537;PMS5003;68989;52.032;5.152;2024-01-30T01:10:32;37;35;
79537;PMS5003;68989;52.032;5.152;2024-01-30T01:12:59;32;30;
79537;PMS5003;68989;52.032;5.152;2024-01-30T01:15:26;40;36;
79537;PMS5003;68989;52.032;5.152;2024-01-30T01:17:52;31;31;
79537;PMS5003;68989;52.032;5.152;2024-01-30T01:20:20;35;35;
79537;PMS5003;68989;52.032;5.152;2024-01-30T01:22:47;35;35;
79537;PMS5003;68989;52.032;5.152;2024-01-30T01:25:14;37;33;
79537;PMS5003;68989;52.032;5.152;2024-01-30T01:27:42;27;26;
79537;PMS5003;68989;52.032;5.152;2024-01-30T01:30:09;39;33;
79537;PMS5003;68989;52.032;5.152;2024-01-30T01:32:37;35;33;
79537;PMS5003;68989;52.032;5.152;2024-01-30T01:35:04;29;29;
79537;PMS5003;68989;52.032;5.152;2024-01-30T01:37:31;29;28;
79537;PMS5003;68989;52.032;5.152;2024-01-30T01:39:59;39;33;
79537;PMS5003;68989;52.032;5.152;2024-01-30T01:42:26;35;31;
79537;PMS5003;68989;52.032;5.152;2024-01-30T01:44:53;34;32;
79537;PMS5003;68989;52.032;5.152;2024-01-30T01:47:20;41;38;
79537;PMS5003;68989;52.032;5.152;2024-01-30T01:49:47;32;30;
79537;PMS5003;68989;52.032;5.152;2024-01-30T01:52:14;33;31;
79537;PMS5003;68989;52.032;5.152;2024-01-30T01:54:41;36;27;
79537;PMS5003;68989;52.032;5.152;2024-01-30T01:57:09;35;29;
79537;PMS5003;68989;52.032;5.152;2024-01-30T01:59:37;33;32;
79537;PMS5003;68989;52.032;5.152;2024-01-30T02:02:18;36;31;
79537;PMS5003;68989;52.032;5.152;2024-01-30T02:04:47;39;33;
79537;PMS5003;68989;52.032;5.152;2024-01-30T02:07:14;31;28;
79537;PMS5003;68989;52.032;5.152;2024-01-30T02:09:41;37;32;
79537;PMS5003;68989;52.032;5.152;2024-01-30T02:12:08;29;26;
79537;PMS5003;68989;52.032;5.152;2024-01-30T02:14:43;34;30;
79537;PMS5003;68989;52.032;5.152;2024-01-30T02:17:11;30;27;
79537;PMS5003;68989;52.032;5.152;2024-01-30T02:19:38;30;30;
79537;PMS5003;68989;52.032;5.152;2024-01-30T02:22:05;30;30;
79537;PMS5003;68989;52.032;5.152;2024-01-30T02:24:33;34;30;
79537;PMS5003;68989;52.032;5.152;2024-01-30T02:27:00;35;32;
79537;PMS5003;68989;52.032;5.152;2024-01-30T02:29:27;31;31;
79537;PMS5003;68989;52.032;5.152;2024-01-30T02:31:54;30;28;
79537;PMS5003;68989;52.032;5.152;2024-01-30T02:34:21;35;29;
79537;PMS5003;68989;52.032;5.152;2024-01-30T02:36:47;40;32;
79537;PMS5003;68989;52.032;5.152;2024-01-30T02:39:14;31;30;
79537;PMS5003;68989;52.032;5.152;2024-01-30T02:41:41;34;30;
79537;PMS5003;68989;52.032;5.152;2024-01-30T02:44:08;32;28;
79537;PMS5003;68989;52.032;5.152;2024-01-30T02:46:35;32;31;
79537;PMS5003;68989;52.032;5.152;2024-01-30T02:49:02;30;30;
79537;PMS5003;68989;52.032;5.152;2024-01-30T02:51:29;34;29;
79537;PMS5003;68989;52.032;5.152;2024-01-30T02:53:56;30;29;
79537;PMS5003;68989;52.032;5.152;2024-01-30T02:56:23;32;27;
79537;PMS5003;68989;52.032;5.152;2024-01-30T02:58:50;30;30;
79537;PMS5003;68989;52.032;5.152;2024-01-30T03:01:17;31;29;
79537;PMS5003;68989;52.032;5.152;2024-01-30T03:03:44;27;25;
79537;PMS5003;68989;52.032;5.152;2024-01-30T03:06:11;27;26;
79537;PMS5003;68989;52.032;5.152;2024-01-30T03:08:39;30;28;
79537;PMS5003;68989;52.032;5.152;2024-01-30T03:11:06;32;32;
79537;PMS5003;68989;52.032;5.152;2024-01-30T03:13:33;29;29;
79537;PMS5003;68989;52.032;5.152;2024-01-30T03:16:00;32;30;
79537;PMS5003;68989;52.032;5.152;2024-01-30T03:18:27;29;28;
79537;PMS5003;68989;52.032;5.152;2024-01-30T03:20:55;32;29;
79537;PMS5003;68989;52.032;5.152;2024-01-30T03:23:21;31;29;
79537;PMS5003;68989;52.032;5.152;2024-01-30T03:25:49;30;30;
79537;PMS5003;68989;52.032;5.152;2024-01-30T03:28:16;31;31;
79537;PMS5003;68989;52.032;5.152;2024-01-30T03:30:43;31;29;
79537;PMS5003;68989;52.032;5.152;2024-01-30T03:33:10;29;29;
79537;PMS5003;68989;52.032;5.152;2024-01-30T03:35:37;32;30;
79537;PMS5003;68989;52.032;5.152;2024-01-30T03:38:04;37;32;
79537;PMS5003;68989;52.032;5.152;2024-01-30T03:40:31;35;31;
79537;PMS5003;68989;52.032;5.152;2024-01-30T03:42:58;36;32;
79537;PMS5003;68989;52.032;5.152;2024-01-30T03:45:25;31;26;
79537;PMS5003;68989;52.032;5.152;2024-01-30T03:47:52;38;32;
79537;PMS5003;68989;52.032;5.152;2024-01-30T03:50:18;33;29;
79537;PMS5003;68989;52.032;5.152;2024-01-30T03:52:45;35;30;
79537;PMS5003;68989;52.032;5.152;2024-01-30T03:55:12;36;31;
79537;PMS5003;68989;52.032;5.152;2024-01-30T03:57:39;29;28;
79537;PMS5003;68989;52.032;5.152;2024-01-30T04:00:07;29;28;
79537;PMS5003;68989;52.032;5.152;2024-01-30T04:02:35;35;32;
79537;PMS5003;68989;52.032;5.152;2024-01-30T04:05:02;37;35;
79537;PMS5003;68989;52.032;5.152;2024-01-30T04:07:29;28;26;
79537;PMS5003;68989;52.032;5.152;2024-01-30T04:09:56;35;29;
79537;PMS5003;68989;52.032;5.152;2024-01-30T04:12:23;33;27;
79537;PMS5003;68989;52.032;5.152;2024-01-30T04:14:49;32;31;
79537;PMS5003;68989;52.032;5.152;2024-01-30T04:17:16;31;29;
79537;PMS5003;68989;52.032;5.152;2024-01-30T04:19:43;29;29;
79537;PMS5003;68989;52.032;5.152;2024-01-30T04:22:10;39;31;
79537;PMS5003;68989;52.032;5.152;2024-01-30T04:24:38;36;31;
79537;PMS5003;68989;52.032;5.152;2024-01-30T04:27:05;32;31;
79537;PMS5003;68989;52.032;5.152;2024-01-30T04:29:31;39;33;
79537;PMS5003;68989;52.032;5.152;2024-01-30T04:31:59;35;34;
79537;PMS5003;68989;52.032;5.152;2024-01-30T04:34:26;26;24;
79537;PMS5003;68989;52.032;5.152;2024-01-30T04:36:54;32;31;
79537;PMS5003;68989;52.032;5.152;2024-01-30T04:39:21;31;29;
79537;PMS5003;68989;52.032;5.152;2024-01-30T04:41:48;30;29;
79537;PMS5003;68989;52.032;5.152;2024-01-30T04:44:15;28;24;
79537;PMS5003;68989;52.032;5.152;2024-01-30T04:46:42;32;28;
79537;PMS5003;68989;52.032;5.152;2024-01-30T04:49:09;28;28;
79537;PMS5003;68989;52.032;5.152;2024-01-30T04:51:36;30;24;
79537;PMS5003;68989;52.032;5.152;2024-01-30T04:54:04;40;29;
79537;PMS5003;68989;52.032;5.152;2024-01-30T04:56:31;32;30;
79537;PMS5003;68989;52.032;5.152;2024-01-30T04:58:58;32;29;
79537;PMS5003;68989;52.032;5.152;2024-01-30T05:01:25;28;24;
79537;PMS5003;68989;52.032;5.152;2024-01-30T05:03:52;30;30;
79537;PMS5003;68989;52.032;5.152;2024-01-30T05:06:24;33;32;
79537;PMS5003;68989;52.032;5.152;2024-01-30T05:08:51;31;29;
79537;PMS5003;68989;52.032;5.152;2024-01-30T05:11:18;34;30;
79537;PMS5003;68989;52.032;5.152;2024-01-30T05:13:45;33;30;
79537;PMS5003;68989;52.032;5.152;2024-01-30T05:16:13;27;27;
79537;PMS5003;68989;52.032;5.152;2024-01-30T05:18:39;30;25;
79537;PMS5003;68989;52.032;5.152;2024-01-30T05:21:07;38;30;
79537;PMS5003;68989;52.032;5.152;2024-01-30T05:23:34;39;33;
79537;PMS5003;68989;52.032;5.152;2024-01-30T05:26:01;36;32;
79537;PMS5003;68989;52.032;5.152;2024-01-30T05:28:28;27;27;
79537;PMS5003;68989;52.032;5.152;2024-01-30T05:30:56;35;28;
79537;PMS5003;68989;52.032;5.152;2024-01-30T05:33:22;31;28;
79537;PMS5003;68989;52.032;5.152;2024-01-30T05:35:50;32;28;
79537;PMS5003;68989;52.032;5.152;2024-01-30T05:38:17;30;26;
79537;PMS5003;68989;52.032;5.152;2024-01-30T05:40:44;26;26;
79537;PMS5003;68989;52.032;5.152;2024-01-30T05:43:11;37;32;
79537;PMS5003;68989;52.032;5.152;2024-01-30T05:45:38;30;30;
79537;PMS5003;68989;52.032;5.152;2024-01-30T05:48:05;24;24;
79537;PMS5003;68989;52.032;5.152;2024-01-30T05:50:32;28;24;
79537;PMS5003;68989;52.032;5.152;2024-01-30T05:52:59;35;30;
79537;PMS5003;68989;52.032;5.152;2024-01-30T05:55:26;33;28;
79537;PMS5003;68989;52.032;5.152;2024-01-30T05:57:53;33;29;
79537;PMS5003;68989;52.032;5.152;2024-01-30T06:00:20;28;25;
79537;PMS5003;68989;52.032;5.152;2024-01-30T06:02:47;26;24;
79537;PMS5003;68989;52.032;5.152;2024-01-30T06:05:14;31;28;
79537;PMS5003;68989;52.032;5.152;2024-01-30T06:07:41;27;24;
79537;PMS5003;68989;52.032;5.152;2024-01-30T06:10:08;31;26;
79537;PMS5003;68989;52.032;5.152;2024-01-30T06:12:35;28;23;
79537;PMS5003;68989;52.032;5.152;2024-01-30T06:15:02;30;25;
79537;PMS5003;68989;52.032;5.152;2024-01-30T06:17:30;24;24;
79537;PMS5003;68989;52.032;5.152;2024-01-30T06:19:57;26;23;
79537;PMS5003;68989;52.032;5.152;2024-01-30T06:22:24;30;27;
79537;PMS5003;68989;52.032;5.152;2024-01-30T06:24:51;29;24;
79537;PMS5003;68989;52.032;5.152;2024-01-30T06:27:19;24;23;
79537;PMS5003;68989;52.032;5.152;2024-01-30T06:29:46;28;26;
79537;PMS5003;68989;52.032;5.152;2024-01-30T06:32:13;24;23;
79537;PMS5003;68989;52.032;5.152;2024-01-30T06:34:40;27;24;
79537;PMS5003;68989;52.032;5.152;2024-01-30T06:37:07;27;24;
79537;PMS5003;68989;52.032;5.152;2024-01-30T06:39:34;34;28;
79537;PMS5003;68989;52.032;5.152;2024-01-30T06:42:02;24;23;
79537;PMS5003;68989;52.032;5.152;2024-01-30T06:44:30;24;22;
79537;PMS5003;68989;52.032;5.152;2024-01-30T06:46:58;25;24;
79537;PMS5003;68989;52.032;5.152;2024-01-30T06:49:24;29;29;
79537;PMS5003;68989;52.032;5.152;2024-01-30T06:51:52;28;28;
79537;PMS5003;68989;52.032;5.152;2024-01-30T06:54:19;23;20;
79537;PMS5003;68989;52.032;5.152;2024-01-30T06:56:46;30;25;
79537;PMS5003;68989;52.032;5.152;2024-01-30T06:59:13;25;23;
79537;PMS5003;68989;52.032;5.152;2024-01-30T07:01:40;27;25;
79537;PMS5003;68989;52.032;5.152;2024-01-30T07:04:06;31;27;
79537;PMS5003;68989;52.032;5.152;2024-01-30T07:06:33;24;24;
79537;PMS5003;68989;52.032;5.152;2024-01-30T07:09:00;27;24;
79537;PMS5003;68989;52.032;5.152;2024-01-30T07:11:28;26;25;
79537;PMS5003;68989;52.032;5.152;2024-01-30T07:13:55;26;26;
79537;PMS5003;68989;52.032;5.152;2024-01-30T07:16:22;30;28;
79537;PMS5003;68989;52.032;5.152;2024-01-30T07:18:49;26;25;
79537;PMS5003;68989;52.032;5.152;2024-01-30T07:21:16;27;27;
79537;PMS5003;68989;52.032;5.152;2024-01-30T07:23:43;28;26;
79537;PMS5003;68989;52.032;5.152;2024-01-30T07:26:10;26;24;
79537;PMS5003;68989;52.032;5.152;2024-01-30T07:28:38;26;26;
79537;PMS5003;68989;52.032;5.152;2024-01-30T07:31:05;26;24;
79537;PMS5003;68989;52.032;5.152;2024-01-30T07:33:32;27;26;
79537;PMS5003;68989;52.032;5.152;2024-01-30T07:35:59;22;22;
79537;PMS5003;68989;52.032;5.152;2024-01-30T07:38:26;29;27;
79537;PMS5003;68989;52.032;5.152;2024-01-30T07:40:54;24;23;
79537;PMS5003;68989;52.032;5.152;2024-01-30T07:43:21;25;25;
79537;PMS5003;68989;52.032;5.152;2024-01-30T07:45:48;26;26;
79537;PMS5003;68989;52.032;5.152;2024-01-30T07:48:14;27;26;
79537;PMS5003;68989;52.032;5.152;2024-01-30T07:50:41;26;23;
79537;PMS5003;68989;52.032;5.152;2024-01-30T07:53:08;31;27;
79537;PMS5003;68989;52.032;5.152;2024-01-30T07:55:36;31;28;
79537;PMS5003;68989;52.032;5.152;2024-01-30T07:58:03;29;29;
79537;PMS5003;68989;52.032;5.152;2024-01-30T08:00:31;22;22;
79537;PMS5003;68989;52.032;5.152;2024-01-30T08:02:58;29;28;
79537;PMS5003;68989;52.032;5.152;2024-01-30T08:05:25;31;27;
79537;PMS5003;68989;52.032;5.152;2024-01-30T08:07:52;25;24;
79537;PMS5003;68989;52.032;5.152;2024-01-30T08:10:19;26;22;
79537;PMS5003;68989;52.032;5.152;2024-01-30T08:12:47;32;26;
79537;PMS5003;68989;52.032;5.152;2024-01-30T08:15:14;29;27;
79537;PMS5003;68989;52.032;5.152;2024-01-30T08:17:41;30;25;
79537;PMS5003;68989;52.032;5.152;2024-01-30T08:20:08;26;26;
79537;PMS5003;68989;52.032;5.152;2024-01-30T08:22:37;32;28;
79537;PMS5003;68989;52.032;5.152;2024-01-30T08:25:06;26;24;
79537;PMS5003;68989;52.032;5.152;2024-01-30T08:27:33;31;28;
79537;PMS5003;68989;52.032;5.152;2024-01-30T08:30:01;34;30;
79537;PMS5003;68989;52.032;5.152;2024-01-30T08:32:27;25;25;
79537;PMS5003;68989;52.032;5.152;2024-01-30T08:34:54;28;23;
79537;PMS5003;68989;52.032;5.152;2024-01-30T08:37:21;32;29;
79537;PMS5003;68989;52.032;5.152;2024-01-30T08:39:48;36;31;
79537;PMS5003;68989;52.032;5.152;2024-01-30T08:42:16;32;32;
79537;PMS5003;68989;52.032;5.152;2024-01-30T08:44:43;30;28;
79537;PMS5003;68989;52.032;5.152;2024-01-30T08:47:10;33;27;
79537;PMS5003;68989;52.032;5.152;2024-01-30T08:49:38;32;30;
79537;PMS5003;68989;52.032;5.152;2024-01-30T08:52:04;33;30;
79537;PMS5003;68989;52.032;5.152;2024-01-30T08:54:32;31;28;
79537;PMS5003;68989;52.032;5.152;2024-01-30T08:56:58;29;27;
79537;PMS5003;68989;52.032;5.152;2024-01-30T08:59:26;28;24;
79537;PMS5003;68989;52.032;5.152;2024-01-30T09:01:53;29;25;
79537;PMS5003;68989;52.032;5.152;2024-01-30T09:04:19;27;25;
79537;PMS5003;68989;52.032;5.152;2024-01-30T09:06:47;25;24;
79537;PMS5003;68989;52.032;5.152;2024-01-30T09:09:15;35;30;
79537;PMS5003;68989;52.032;5.152;2024-01-30T09:11:43;24;22;
79537;PMS5003;68989;52.032;5.152;2024-01-30T09:14:10;32;29;
79537;PMS5003;68989;52.032;5.152;2024-01-30T09:16:36;26;23;
79537;PMS5003;68989;52.032;5.152;2024-01-30T09:19:04;37;31;
79537;PMS5003;68989;52.032;5.152;2024-01-30T09:21:31;24;23;
79537;PMS5003;68989;52.032;5.152;2024-01-30T09:24:01;33;26;
79537;PMS5003;68989;52.032;5.152;2024-01-30T09:26:29;25;25;
79537;PMS5003;68989;52.032;5.152;2024-01-30T09:28:57;27;24;
79537;PMS5003;68989;52.032;5.152;2024-01-30T09:31:24;25;23;
79537;PMS5003;68989;52.032;5.152;2024-01-30T09:33:51;31;30;
79537;PMS5003;68989;52.032;5.152;2024-01-30T09:36:18;27;24;
79537;PMS5003;68989;52.032;5.152;2024-01-30T09:38:46;35;30;
79537;PMS5003;68989;52.032;5.152;2024-01-30T09:41:13;30;25;
79537;PMS5003;68989;52.032;5.152;2024-01-30T09:43:41;26;25;
79537;PMS5003;68989;52.032;5.152;2024-01-30T09:46:13;24;24;
79537;PMS5003;68989;52.032;5.152;2024-01-30T09:48:43;28;26;
79537;PMS5003;68989;52.032;5.152;2024-01-30T09:51:12;27;23;
79537;PMS5003;68989;52.032;5.152;2024-01-30T09:53:42;28;26;
79537;PMS5003;68989;52.032;5.152;2024-01-30T09:56:09;28;26;
79537;PMS5003;68989;52.032;5.152;2024-01-30T09:58:38;25;25;
79537;PMS5003;68989;52.032;5.152;2024-01-30T10:01:06;26;25;
79537;PMS5003;68989;52.032;5.152;2024-01-30T10:03:32;27;24;
79537;PMS5003;68989;52.032;5.152;2024-01-30T10:05:59;25;24;
79537;PMS5003;68989;52.032;5.152;2024-01-30T10:08:28;27;24;
79537;PMS5003;68989;52.032;5.152;2024-01-30T10:10:55;25;24;
79537;PMS5003;68989;52.032;5.152;2024-01-30T10:13:22;29;26;
79537;PMS5003;68989;52.032;5.152;2024-01-30T10:15:50;32;29;
79537;PMS5003;68989;52.032;5.152;2024-01-30T10:18:17;31;27;
79537;PMS5003;68989;52.032;5.152;2024-01-30T10:20:44;27;27;
79537;PMS5003;68989;52.032;5.152;2024-01-30T10:23:12;26;25;
79537;PMS5003;68989;52.032;5.152;2024-01-30T10:25:39;28;27;
79537;PMS5003;68989;52.032;5.152;2024-01-30T10:28:07;29;25;
79537;PMS5003;68989;52.032;5.152;2024-01-30T10:30:34;36;32;
79537;PMS5003;68989;52.032;5.152;2024-01-30T10:33:01;27;25;
79537;PMS5003;68989;52.032;5.152;2024-01-30T10:35:28;28;26;
79537;PMS5003;68989;52.032;5.152;2024-01-30T10:37:56;27;24;
79537;PMS5003;68989;52.032;5.152;2024-01-30T10:40:24;26;23;
79537;PMS5003;68989;52.032;5.152;2024-01-30T10:42:55;27;26;
79537;PMS5003;68989;52.032;5.152;2024-01-30T10:45:22;25;23;
79537;PMS5003;68989;52.032;5.152;2024-01-30T10:47:53;26;25;
79537;PMS5003;68989;52.032;5.152;2024-01-30T10:50:21;24;24;
79537;PMS5003;68989;52.032;5.152;2024-01-30T10:52:51;28;26;
79537;PMS5003;68989;52.032;5.152;2024-01-30T10:55:19;26;26;
79537;PMS5003;68989;52.032;5.152;2024-01-30T10:57:48;29;26;
79537;PMS5003;68989;52.032;5.152;2024-01-30T11:00:15;25;25;
79537;PMS5003;68989;52.032;5.152;2024-01-30T11:02:44;27;25;
79537;PMS5003;68989;52.032;5.152;2024-01-30T11:05:12;25;25;
79537;PMS5003;68989;52.032;5.152;2024-01-30T11:07:40;18;17;
79537;PMS5003;68989;52.032;5.152;2024-01-30T11:10:08;21;21;
79537;PMS5003;68989;52.032;5.152;2024-01-30T11:12:37;26;22;
79537;PMS5003;68989;52.032;5.152;2024-01-30T11:15:06;23;19;
79537;PMS5003;68989;52.032;5.152;2024-01-30T11:17:42;19;16;
79537;PMS5003;68989;52.032;5.152;2024-01-30T11:20:11;13;13;
79537;PMS5003;68989;52.032;5.152;2024-01-30T11:22:40;15;14;
79537;PMS5003;68989;52.032;5.152;2024-01-30T11:25:10;12;10;
79537;PMS5003;68989;52.032;5.152;2024-01-30T11:27:38;11;9;
79537;PMS5003;68989;52.032;5.152;2024-01-30T11:30:06;8;8;
79537;PMS5003;68989;52.032;5.152;2024-01-30T11:32:34;7;7;
79537;PMS5003;68989;52.032;5.152;2024-01-30T11:35:03;8;6;
79537;PMS5003;68989;52.032;5.152;2024-01-30T11:37:30;7;7;
79537;PMS5003;68989;52.032;5.152;2024-01-30T11:39:58;6;4;
79537;PMS5003;68989;52.032;5.152;2024-01-30T11:42:25;4;4;
79537;PMS5003;68989;52.032;5.152;2024-01-30T11:44:53;4;4;
79537;PMS5003;68989;52.032;5.152;2024-01-30T11:47:20;3;3;
79537;PMS5003;68989;52.032;5.152;2024-01-30T11:49:48;5;5;
79537;PMS5003;68989;52.032;5.152;2024-01-30T11:52:16;3;3;
79537;PMS5003;68989;52.032;5.152;2024-01-30T11:54:43;3;3;
79537;PMS5003;68989;52.032;5.152;2024-01-30T11:57:10;3;3;
79537;PMS5003;68989;52.032;5.152;2024-01-30T11:59:38;6;5;
79537;PMS5003;68989;52.032;5.152;2024-01-30T12:02:05;8;8;
79537;PMS5003;68989;52.032;5.152;2024-01-30T12:04:32;7;7;
79537;PMS5003;68989;52.032;5.152;2024-01-30T12:06:59;8;8;
79537;PMS5003;68989;52.032;5.152;2024-01-30T12:09:26;9;9;
79537;PMS5003;68989;52.032;5.152;2024-01-30T12:11:53;11;10;
79537;PMS5003;68989;52.032;5.152;2024-01-30T12:14:20;9;9;
79537;PMS5003;68989;52.032;5.152;2024-01-30T12:16:48;13;9;
79537;PMS5003;68989;52.032;5.152;2024-01-30T12:19:21;11;9;
79537;PMS5003;68989;52.032;5.152;2024-01-30T12:21:53;7;7;
79537;PMS5003;68989;52.032;5.152;2024-01-30T12:24:21;9;7;
79537;PMS5003;68989;52.032;5.152;2024-01-30T12:26:48;7;7;
79537;PMS5003;68989;52.032;5.152;2024-01-30T12:29:16;5;5;
79537;PMS5003;68989;52.032;5.152;2024-01-30T12:31:43;5;5;
79537;PMS5003;68989;52.032;5.152;2024-01-30T12:34:13;5;5;
79537;PMS5003;68989;52.032;5.152;2024-01-30T12:36:41;6;6;
79537;PMS5003;68989;52.032;5.152;2024-01-30T12:39:10;4;4;
79537;PMS5003;68989;52.032;5.152;2024-01-30T12:41:37;7;6;
79537;PMS5003;68989;52.032;5.152;2024-01-30T12:44:04;4;4;
79537;PMS5003;68989;52.032;5.152;2024-01-30T12:46:31;7;7;
79537;PMS5003;68989;52.032;5.152;2024-01-30T12:49:00;5;5;
79537;PMS5003;68989;52.032;5.152;2024-01-30T12:51:27;6;5;
79537;PMS5003;68989;52.032;5.152;2024-01-30T12:53:53;5;5;
79537;PMS5003;68989;52.032;5.152;2024-01-30T12:56:20;5;5;
79537;PMS5003;68989;52.032;5.152;2024-01-30T12:58:47;6;4;
79537;PMS5003;68989;52.032;5.152;2024-01-30T13:01:14;2;2;
79537;PMS5003;68989;52.032;5.152;2024-01-30T13:03:41;2;2;
79537;PMS5003;68989;52.032;5.152;2024-01-30T13:06:08;3;2;
79537;PMS5003;68989;52.032;5.152;2024-01-30T13:08:34;1;1;
79537;PMS5003;68989;52.032;5.152;2024-01-30T13:11:01;1;1;
79537;PMS5003;68989;52.032;5.152;2024-01-30T13:13:28;2;1;
79537;PMS5003;68989;52.032;5.152;2024-01-30T13:15:55;2;2;
79537;PMS5003;68989;52.032;5.152;2024-01-30T13:18:23;1;1;
79537;PMS5003;68989;52.032;5.152;2024-01-30T13:20:50;2;1;
79537;PMS5003;68989;52.032;5.152;2024-01-30T13:23:16;1;1;
79537;PMS5003;68989;52.032;5.152;2024-01-30T13:25:44;2;1;
79537;PMS5003;68989;52.032;5.152;2024-01-30T13:28:11;1;1;
79537;PMS5003;68989;52.032;5.152;2024-01-30T13:30:37;2;1;
79537;PMS5003;68989;52.032;5.152;2024-01-30T13:33:04;2;1;
79537;PMS5003;68989;52.032;5.152;2024-01-30T13:35:31;2;2;
79537;PMS5003;68989;52.032;5.152;2024-01-30T13:37:59;2;2;
79537;PMS5003;68989;52.032;5.152;2024-01-30T13:40:26;1;1;
79537;PMS5003;68989;52.032;5.152;2024-01-30T13:42:52;2;1;
79537;PMS5003;68989;52.032;5.152;2024-01-30T13:45:19;3;2;
79537;PMS5003;68989;52.032;5.152;2024-01-30T13:47:46;1;1;
79537;PMS5003;68989;52.032;5.152;2024-01-30T13:50:13;1;1;
79537;PMS5003;68989;52.032;5.152;2024-01-30T13:52:40;0;0;
79537;PMS5003;68989;52.032;5.152;2024-01-30T13:55:07;2;1;
79537;PMS5003;68989;52.032;5.152;2024-01-30T13:57:33;2;2;
79537;PMS5003;68989;52.032;5.152;2024-01-30T14:00:01;4;3;
79537;PMS5003;68989;52.032;5.152;2024-01-30T14:02:29;3;2;
79537;PMS5003;68989;52.032;5.152;2024-01-30T14:04:56;1;1;
79537;PMS5003;68989;52.032;5.152;2024-01-30T14:07:22;2;2;
79537;PMS5003;68989;52.032;5.152;2024-01-30T14:09:50;2;2;
79537;PMS5003;68989;52.032;5.152;2024-01-30T14:12:17;4;2;
79537;PMS5003;68989;52.032;5.152;2024-01-30T14:14:44;4;2;
79537;PMS5003;68989;52.032;5.152;2024-01-30T14:17:11;2;2;
79537;PMS5003;68989;52.032;5.152;2024-01-30T14:19:37;2;2;
79537;PMS5003;68989;52.032;5.152;2024-01-30T14:22:04;3;3;
79537;PMS5003;68989;52.032;5.152;2024-01-30T14:24:31;1;1;
79537;PMS5003;68989;52.032;5.152;2024-01-30T14:26:58;3;3;
79537;PMS5003;68989;52.032;5.152;2024-01-30T14:29:25;3;1;
79537;PMS5003;68989;52.032;5.152;2024-01-30T14:31:52;2;2;
79537;PMS5003;68989;52.032;5.152;2024-01-30T14:34:18;3;3;
79537;PMS5003;68989;52.032;5.152;2024-01-30T14:36:45;7;4;
79537;PMS5003;68989;52.032;5.152;2024-01-30T14:39:13;7;5;
79537;PMS5003;68989;52.032;5.152;2024-01-30T14:41:41;3;3;
79537;PMS5003;68989;52.032;5.152;2024-01-30T14:44:08;2;2;
79537;PMS5003;68989;52.032;5.152;2024-01-30T14:46:35;5;5;
79537;PMS5003;68989;52.032;5.152;2024-01-30T14:49:03;5;4;
79537;PMS5003;68989;52.032;5.152;2024-01-30T14:51:30;4;4;
79537;PMS5003;68989;52.032;5.152;2024-01-30T14:53:58;3;3;
79537;PMS5003;68989;52.032;5.152;2024-01-30T14:56:25;4;4;
79537;PMS5003;68989;52.032;5.152;2024-01-30T14:58:53;4;2;
79537;PMS5003;68989;52.032;5.152;2024-01-30T15:01:20;4;4;
79537;PMS5003;68989;52.032;5.152;2024-01-30T15:03:48;4;4;
79537;PMS5003;68989;52.032;5.152;2024-01-30T15:06:14;4;4;
79537;PMS5003;68989;52.032;5.152;2024-01-30T15:08:41;6;5;
79537;PMS5003;68989;52.032;5.152;2024-01-30T15:11:09;6;6;
79537;PMS5003;68989;52.032;5.152;2024-01-30T15:13:36;7;6;
79537;PMS5003;68989;52.032;5.152;2024-01-30T15:16:03;7;7;
79537;PMS5003;68989;52.032;5.152;2024-01-30T15:18:31;6;6;
79537;PMS5003;68989;52.032;5.152;2024-01-30T15:20:58;4;4;
79537;PMS5003;68989;52.032;5.152;2024-01-30T15:23:25;7;7;
79537;PMS5003;68989;52.032;5.152;2024-01-30T15:25:52;6;5;
79537;PMS5003;68989;52.032;5.152;2024-01-30T15:28:19;5;5;
79537;PMS5003;68989;52.032;5.152;2024-01-30T15:30:48;8;7;
79537;PMS5003;68989;52.032;5.152;2024-01-30T15:33:15;6;6;
79537;PMS5003;68989;52.032;5.152;2024-01-30T15:35:42;10;7;
79537;PMS5003;68989;52.032;5.152;2024-01-30T15:38:09;8;8;
79537;PMS5003;68989;52.032;5.152;2024-01-30T15:40:36;8;8;
79537;PMS5003;68989;52.032;5.152;2024-01-30T15:43:04;8;8;
79537;PMS5003;68989;52.032;5.152;2024-01-30T15:45:31;9;9;
79537;PMS5003;68989;52.032;5.152;2024-01-30T15:47:57;11;8;
79537;PMS5003;68989;52.032;5.152;2024-01-30T15:50:24;9;7;
79537;PMS5003;68989;52.032;5.152;2024-01-30T15:52:51;9;8;
79537;PMS5003;68989;52.032;5.152;2024-01-30T15:55:18;12;11;
79537;PMS5003;68989;52.032;5.152;2024-01-30T15:57:45;9;9;
79537;PMS5003;68989;52.032;5.152;2024-01-30T16:00:12;11;11;
79537;PMS5003;68989;52.032;5.152;2024-01-30T16:02:40;12;11;
79537;PMS5003;68989;52.032;5.152;2024-01-30T16:05:08;13;12;
79537;PMS5003;68989;52.032;5.152;2024-01-30T16:07:35;7;7;
79537;PMS5003;68989;52.032;5.152;2024-01-30T16:10:03;10;10;
79537;PMS5003;68989;52.032;5.152;2024-01-30T16:12:32;12;12;
79537;PMS5003;68989;52.032;5.152;2024-01-30T16:14:59;12;11;
79537;PMS5003;68989;52.032;5.152;2024-01-30T16:17:27;11;10;
79537;PMS5003;68989;52.032;5.152;2024-01-30T16:19:53;12;12;
79537;PMS5003;68989;52.032;5.152;2024-01-30T16:22:20;15;11;
79537;PMS5003;68989;52.032;5.152;2024-01-30T16:24:47;10;8;
79537;PMS5003;68989;52.032;5.152;2024-01-30T16:27:15;10;10;